Time;durP1;ratioP1;P1;durP2;ratioP2;P2;SDS_P1;SDS_P2;PMS_P1;PMS_P2;Temp;Humidity;BMP_temperature;BMP_pressure;BME280_temperature;BME280_humidity;BME280_pressure;Samples;Min_cycle;Max_cycle;Signal;HPM_P1;HPM_P2
2022/01/25 00:15:04;;;;;;;38.35;22.80;;;;;;;;;;5054869;28;20183;-63
2022/01/25 00:24:49;;;;;;;44.88;26.25;;;;;;;;;;5083314;22;20257;-65
2022/01/25 00:27:37;;;;;;;42.63;25.45;;;;;;;;;;5074713;28;20205;-64
2022/01/25 00:30:23;;;;;;;41.00;27.33;;;;;;;;;;5074217;28;20216;-64
2022/01/25 00:32:51;;;;;;;44.65;26.45;;;;;;;;;;5074985;28;20290;-63
2022/01/25 00:35:18;;;;;;;40.75;24.08;;;;;;;;;;5074506;28;20246;-63
2022/01/25 00:37:45;;;;;;;52.45;29.50;;;;;;;;;;5074211;28;20197;-65
2022/01/25 00:40:14;;;;;;;43.15;26.40;;;;;;;;;;5074072;28;20239;-63
2022/01/25 00:42:41;;;;;;;41.08;24.73;;;;;;;;;;5074387;28;20549;-64
2022/01/25 00:45:10;;;;;;;36.35;24.63;;;;;;;;;;5073985;28;20240;-64
2022/01/25 00:47:40;;;;;;;37.65;24.83;;;;;;;;;;5073822;28;20201;-63
2022/01/25 00:50:14;;;;;;;39.75;25.33;;;;;;;;;;5075004;28;20196;-64
2022/01/25 00:55:27;;;;;;;37.58;24.05;;;;;;;;;;5074012;28;20182;-63
2022/01/25 00:57:55;;;;;;;43.00;26.45;;;;;;;;;;5074056;28;20281;-63
2022/01/25 01:00:22;;;;;;;39.78;24.75;;;;;;;;;;5074055;28;20223;-63
2022/01/25 01:02:49;;;;;;;46.58;26.60;;;;;;;;;;5073983;28;20247;-63
2022/01/25 01:05:17;;;;;;;41.75;25.08;;;;;;;;;;5073653;28;20296;-63
2022/01/25 01:07:44;;;;;;;37.92;23.27;;;;;;;;;;5073488;28;20233;-64
2022/01/25 01:10:15;;;;;;;40.75;25.30;;;;;;;;;;5074144;28;20228;-64
2022/01/25 01:15:35;;;;;;;41.35;24.67;;;;;;;;;;5073702;28;20183;-64
2022/01/25 01:29:30;;;;;;;42.80;25.00;;;;;;;;;;5073377;28;20215;-64
2022/01/25 01:32:07;;;;;;;39.70;25.95;;;;;;;;;;5074185;28;20196;-63
2022/01/25 01:35:11;;;;;;;40.08;25.60;;;;;;;;;;5073320;28;20182;-63
2022/01/25 01:40:45;;;;;;;43.03;24.75;;;;;;;;;;5073582;28;20178;-63
2022/01/25 01:43:25;;;;;;;41.28;23.63;;;;;;;;;;5073200;28;20203;-63
2022/01/25 01:46:01;;;;;;;35.92;22.92;;;;;;;;;;5073290;28;20630;-64
2022/01/25 01:48:31;;;;;;;39.30;23.95;;;;;;;;;;5073798;28;20213;-64
2022/01/25 01:51:04;;;;;;;39.20;25.33;;;;;;;;;;5073149;28;20196;-64
2022/01/25 01:53:31;;;;;;;36.35;23.70;;;;;;;;;;5073036;28;20196;-67
2022/01/25 01:55:59;;;;;;;46.95;25.00;;;;;;;;;;5073386;28;20621;-64
2022/01/25 01:58:26;;;;;;;38.88;26.48;;;;;;;;;;5073335;28;20205;-64
2022/01/25 02:00:55;;;;;;;34.42;23.17;;;;;;;;;;5073349;28;20234;-64
2022/01/25 02:03:23;;;;;;;45.10;26.02;;;;;;;;;;5072985;28;20287;-64
2022/01/25 02:05:50;;;;;;;40.08;24.05;;;;;;;;;;5073326;28;20217;-64
2022/01/25 02:08:17;;;;;;;35.67;22.88;;;;;;;;;;5073361;28;20277;-64
2022/01/25 02:10:45;;;;;;;34.55;23.75;;;;;;;;;;5074532;28;20221;-64
2022/01/25 02:13:12;;;;;;;42.17;25.70;;;;;;;;;;5073559;28;20199;-64
2022/01/25 02:15:44;;;;;;;39.05;22.98;;;;;;;;;;5072972;28;20298;-64
2022/01/25 02:23:45;;;;;;;44.78;24.80;;;;;;;;;;5073485;28;20326;-64
2022/01/25 02:26:13;;;;;;;42.47;25.00;;;;;;;;;;5073092;28;20623;-63
2022/01/25 02:28:41;;;;;;;37.53;23.83;;;;;;;;;;5073005;28;20303;-63
2022/01/25 02:31:10;;;;;;;42.35;23.75;;;;;;;;;;5073603;28;20192;-64
2022/01/25 02:33:37;;;;;;;41.17;24.13;;;;;;;;;;5072702;28;20287;-64
2022/01/25 02:36:07;;;;;;;44.20;26.45;;;;;;;;;;5073022;28;20619;-64
2022/01/25 02:38:34;;;;;;;40.35;24.80;;;;;;;;;;5072947;28;20238;-64
2022/01/25 02:41:02;;;;;;;44.45;27.05;;;;;;;;;;5072955;28;20249;-64
2022/01/25 02:43:30;;;;;;;42.60;25.75;;;;;;;;;;5072609;28;20668;-63
2022/01/25 02:46:22;;;;;;;43.08;25.92;;;;;;;;;;5075364;28;20231;-64
2022/01/25 02:48:52;;;;;;;43.00;25.45;;;;;;;;;;5076198;28;20219;-63
2022/01/25 02:51:21;;;;;;;39.90;23.02;;;;;;;;;;5077321;28;20242;-64
2022/01/25 02:53:48;;;;;;;35.40;24.30;;;;;;;;;;5076811;28;20235;-64
2022/01/25 02:56:16;;;;;;;40.85;23.63;;;;;;;;;;5076125;28;20707;-64
2022/01/25 02:58:43;;;;;;;41.22;24.70;;;;;;;;;;5076386;28;20210;-63
2022/01/25 03:01:11;;;;;;;43.92;25.58;;;;;;;;;;5076045;28;20200;-64
2022/01/25 03:03:39;;;;;;;43.13;24.40;;;;;;;;;;5076299;28;20621;-63
2022/01/25 03:06:06;;;;;;;43.13;26.38;;;;;;;;;;5075980;28;20704;-63
2022/01/25 03:08:35;;;;;;;48.85;25.35;;;;;;;;;;5076160;28;20644;-63
2022/01/25 03:11:03;;;;;;;44.40;24.90;;;;;;;;;;5076174;28;20655;-64
2022/01/25 03:13:34;;;;;;;39.05;24.35;;;;;;;;;;5076107;28;20197;-64
2022/01/25 03:16:16;;;;;;;40.95;24.75;;;;;;;;;;5075878;28;20189;-63
2022/01/25 03:18:46;;;;;;;41.15;25.30;;;;;;;;;;5076131;28;20185;-64
2022/01/25 03:24:00;;;;;;;41.22;24.08;;;;;;;;;;5068160;28;20586;-63
2022/01/25 03:26:27;;;;;;;41.30;23.90;;;;;;;;;;5075595;28;20737;-63
2022/01/25 03:28:55;;;;;;;42.17;25.48;;;;;;;;;;5075825;28;20223;-63
2022/01/25 03:31:22;;;;;;;52.20;27.20;;;;;;;;;;5075624;28;20645;-63
2022/01/25 03:33:50;;;;;;;44.80;26.95;;;;;;;;;;5075728;28;20195;-64
2022/01/25 03:36:17;;;;;;;44.58;25.25;;;;;;;;;;5075403;28;20679;-63
2022/01/25 03:38:44;;;;;;;40.90;23.85;;;;;;;;;;5075338;28;20671;-63
2022/01/25 03:41:14;;;;;;;42.88;24.15;;;;;;;;;;5075328;28;20287;-64
2022/01/25 03:43:43;;;;;;;43.67;24.00;;;;;;;;;;5075653;28;20188;-64
2022/01/25 03:46:15;;;;;;;46.22;25.95;;;;;;;;;;5075826;28;20265;-65
2022/01/25 03:51:27;;;;;;;41.05;24.45;;;;;;;;;;5075324;28;20312;-64
2022/01/25 03:53:54;;;;;;;41.95;24.35;;;;;;;;;;5075433;28;20201;-64
2022/01/25 03:56:23;;;;;;;40.67;23.58;;;;;;;;;;5075203;28;20199;-64
2022/01/25 03:58:51;;;;;;;40.58;23.83;;;;;;;;;;5075003;28;20294;-65
2022/01/25 04:01:18;;;;;;;46.70;25.13;;;;;;;;;;5075306;28;20227;-63
2022/01/25 04:03:54;;;;;;;39.70;22.73;;;;;;;;;;5075279;28;20206;-64
2022/01/25 04:06:22;;;;;;;40.42;22.55;;;;;;;;;;5074903;28;20187;-64
2022/01/25 04:08:49;;;;;;;44.28;23.67;;;;;;;;;;5074715;28;20285;-65
2022/01/25 04:11:16;;;;;;;36.25;22.23;;;;;;;;;;5074760;28;20295;-64
2022/01/25 04:13:45;;;;;;;40.60;23.52;;;;;;;;;;5075436;28;20248;-63
2022/01/25 04:16:18;;;;;;;42.40;23.45;;;;;;;;;;5074927;28;20201;-63
2022/01/25 04:18:57;;;;;;;39.05;23.42;;;;;;;;;;5075499;28;20271;-65
2022/01/25 04:21:45;;;;;;;39.55;22.77;;;;;;;;;;5074875;28;20655;-63
2022/01/25 04:26:58;;;;;;;43.03;24.27;;;;;;;;;;5074688;28;20549;-64
2022/01/25 04:29:27;;;;;;;48.28;26.17;;;;;;;;;;5074258;28;20222;-63
2022/01/25 04:31:56;;;;;;;46.25;25.40;;;;;;;;;;5074253;28;20714;-63
2022/01/25 04:34:40;;;;;;;46.83;26.02;;;;;;;;;;5074576;28;20623;-63
2022/01/25 04:51:15;;;;;;;42.75;24.73;;;;;;;;;;5074101;28;20294;-65
2022/01/25 04:53:51;;;;;;;43.53;25.90;;;;;;;;;;5074517;28;20620;-64
2022/01/25 04:56:24;;;;;;;45.45;26.58;;;;;;;;;;5074531;28;20270;-63
2022/01/25 04:58:58;;;;;;;54.05;26.52;;;;;;;;;;5074489;28;20522;-63
2022/01/25 05:01:27;;;;;;;51.53;26.30;;;;;;;;;;5074106;28;20189;-63
2022/01/25 05:04:01;;;;;;;55.60;26.13;;;;;;;;;;5073666;28;20204;-63
2022/01/25 05:06:30;;;;;;;52.85;29.58;;;;;;;;;;5073687;28;20181;-64
2022/01/25 05:09:07;;;;;;;50.03;28.48;;;;;;;;;;5073483;28;20203;-64
2022/01/25 05:11:36;;;;;;;55.45;27.23;;;;;;;;;;5073643;28;20668;-64
2022/01/25 05:14:23;;;;;;;59.88;28.95;;;;;;;;;;5073461;28;20199;-63
2022/01/25 05:16:55;;;;;;;50.15;26.13;;;;;;;;;;5073807;28;20211;-63
2022/01/25 05:22:04;;;;;;;52.70;26.55;;;;;;;;;;5074121;28;20191;-64
2022/01/25 05:22:26;;;;;;;47.75;27.23;;;;;;;;;;5073344;28;20555;-64
2022/01/25 05:24:54;;;;;;;53.40;28.63;;;;;;;;;;5073706;28;20835;-64
2022/01/25 05:27:22;;;;;;;50.83;31.00;;;;;;;;;;5073530;28;20686;-63
2022/01/25 05:29:49;;;;;;;50.90;27.63;;;;;;;;;;5073238;28;20687;-63
2022/01/25 05:32:18;;;;;;;50.72;28.75;;;;;;;;;;5071932;28;20283;-64
2022/01/25 05:34:46;;;;;;;53.13;27.33;;;;;;;;;;5073086;28;20196;-63
2022/01/25 05:37:13;;;;;;;46.70;25.63;;;;;;;;;;5072409;28;20193;-63
2022/01/25 05:39:41;;;;;;;50.78;28.30;;;;;;;;;;5072609;28;20203;-63
2022/01/25 05:45:13;;;;;;;51.42;28.00;;;;;;;;;;5057313;28;20200;-63
2022/01/25 05:47:43;;;;;;;54.65;27.52;;;;;;;;;;5072616;28;20192;-63
2022/01/25 05:50:12;;;;;;;59.55;30.42;;;;;;;;;;5072958;28;20214;-63
2022/01/25 05:52:40;;;;;;;63.00;34.33;;;;;;;;;;5072731;28;20247;-63
2022/01/25 05:55:08;;;;;;;60.78;34.20;;;;;;;;;;5073041;28;20202;-63
2022/01/25 05:57:35;;;;;;;64.85;33.88;;;;;;;;;;5072964;28;20199;-63
2022/01/25 06:00:02;;;;;;;60.25;33.60;;;;;;;;;;5072837;28;20609;-64
2022/01/25 06:02:31;;;;;;;60.30;29.70;;;;;;;;;;5072794;28;20613;-63
2022/01/25 06:05:00;;;;;;;75.72;37.40;;;;;;;;;;5073102;28;20616;-63
2022/01/25 06:07:27;;;;;;;61.72;34.55;;;;;;;;;;5072519;28;20238;-62
2022/01/25 06:09:55;;;;;;;61.40;33.33;;;;;;;;;;5072876;28;20572;-64
2022/01/25 06:12:22;;;;;;;75.68;36.70;;;;;;;;;;5072701;28;20196;-64
2022/01/25 06:14:49;;;;;;;68.07;35.67;;;;;;;;;;5072783;28;20196;-63
2022/01/25 06:17:17;;;;;;;66.65;34.05;;;;;;;;;;5073051;28;20196;-65
2022/01/25 06:19:44;;;;;;;70.95;36.05;;;;;;;;;;5074777;28;20205;-66
2022/01/25 06:22:12;;;;;;;60.97;34.65;;;;;;;;;;5076381;28;20237;-65
2022/01/25 06:24:40;;;;;;;72.68;36.10;;;;;;;;;;5077241;28;20274;-65
2022/01/25 06:27:07;;;;;;;68.35;36.60;;;;;;;;;;5076532;28;20753;-66
2022/01/25 06:29:34;;;;;;;67.47;34.17;;;;;;;;;;5076887;28;20239;-65
2022/01/25 06:32:02;;;;;;;65.30;36.38;;;;;;;;;;5076311;28;20661;-65
2022/01/25 06:34:29;;;;;;;65.95;34.85;;;;;;;;;;5077605;28;20249;-65
2022/01/25 06:36:56;;;;;;;63.38;34.58;;;;;;;;;;5076267;28;20236;-65
2022/01/25 06:39:25;;;;;;;64.40;33.20;;;;;;;;;;5076530;28;20194;-65
2022/01/25 06:41:52;;;;;;;66.40;34.42;;;;;;;;;;5075979;28;20197;-66
2022/01/25 06:44:19;;;;;;;72.35;37.35;;;;;;;;;;5076267;28;20718;-65
2022/01/25 06:46:53;;;;;;;65.18;36.10;;;;;;;;;;5075896;28;20236;-66
2022/01/25 06:49:21;;;;;;;65.30;33.88;;;;;;;;;;5076179;28;20209;-64
2022/01/25 06:51:49;;;;;;;67.22;35.38;;;;;;;;;;5076375;28;20213;-64
2022/01/25 06:54:17;;;;;;;69.32;36.63;;;;;;;;;;5076050;28;20236;-64
2022/01/25 06:56:47;;;;;;;63.08;34.30;;;;;;;;;;5075667;28;20281;-64
2022/01/25 06:59:23;;;;;;;59.75;32.47;;;;;;;;;;5075804;28;20192;-65
2022/01/25 07:01:52;;;;;;;69.75;36.83;;;;;;;;;;5075542;28;20193;-64
2022/01/25 07:04:25;;;;;;;62.17;36.75;;;;;;;;;;5076103;28;20223;-65
2022/01/25 07:06:54;;;;;;;60.28;34.90;;;;;;;;;;5076460;28;20267;-64
2022/01/25 07:09:22;;;;;;;74.05;37.65;;;;;;;;;;5075638;28;20218;-65
2022/01/25 07:11:51;;;;;;;66.53;36.03;;;;;;;;;;5075575;28;20196;-65
2022/01/25 07:14:23;;;;;;;66.90;36.92;;;;;;;;;;5076133;28;20202;-65
2022/01/25 07:16:54;;;;;;;71.10;34.97;;;;;;;;;;5076136;28;20560;-65
2022/01/25 07:19:24;;;;;;;64.20;35.08;;;;;;;;;;5075528;28;20194;-64
2022/01/25 07:21:52;;;;;;;65.28;35.45;;;;;;;;;;5075782;28;20203;-65
2022/01/25 07:24:19;;;;;;;59.22;31.25;;;;;;;;;;5075090;28;20229;-65
2022/01/25 07:26:47;;;;;;;61.10;34.22;;;;;;;;;;5075820;28;20219;-65
2022/01/25 07:29:16;;;;;;;58.35;31.13;;;;;;;;;;5075337;28;20195;-65
2022/01/25 07:31:44;;;;;;;59.60;32.38;;;;;;;;;;5074594;28;20262;-65
2022/01/25 07:34:12;;;;;;;63.03;32.80;;;;;;;;;;5075530;28;20246;-64
2022/01/25 07:36:42;;;;;;;59.22;31.15;;;;;;;;;;5075185;28;20238;-65
2022/01/25 07:39:12;;;;;;;63.45;33.83;;;;;;;;;;5075445;28;20610;-65
2022/01/25 07:41:41;;;;;;;68.88;35.20;;;;;;;;;;5075151;28;20215;-65
2022/01/25 07:44:08;;;;;;;69.75;39.22;;;;;;;;;;5075341;28;20209;-65
2022/01/25 07:46:37;;;;;;;55.65;30.20;;;;;;;;;;5076037;28;20583;-64
2022/01/25 07:49:05;;;;;;;52.78;28.33;;;;;;;;;;5075429;28;20195;-65
2022/01/25 07:51:38;;;;;;;63.55;33.15;;;;;;;;;;5075040;28;20264;-64
2022/01/25 07:54:07;;;;;;;57.60;31.58;;;;;;;;;;5075185;28;20282;-65
2022/01/25 07:56:34;;;;;;;63.00;34.45;;;;;;;;;;5075140;28;20249;-65
2022/01/25 07:59:01;;;;;;;58.22;30.42;;;;;;;;;;5075134;28;20609;-65
2022/01/25 08:01:28;;;;;;;60.58;33.03;;;;;;;;;;5074726;28;20236;-65
2022/01/25 08:03:57;;;;;;;63.05;32.65;;;;;;;;;;5074664;28;20295;-64
2022/01/25 08:06:24;;;;;;;63.22;32.42;;;;;;;;;;5074924;28;20239;-64
2022/01/25 08:08:52;;;;;;;63.22;33.42;;;;;;;;;;5075087;28;20288;-65
2022/01/25 08:11:26;;;;;;;61.05;32.33;;;;;;;;;;5074440;28;20261;-65
2022/01/25 08:14:00;;;;;;;65.43;33.00;;;;;;;;;;5074928;28;20231;-65
2022/01/25 08:16:27;;;;;;;85.60;40.58;;;;;;;;;;5075252;28;20184;-64
2022/01/25 08:18:55;;;;;;;64.72;30.52;;;;;;;;;;5074702;28;20195;-64
2022/01/25 08:21:25;;;;;;;61.35;31.92;;;;;;;;;;5074635;28;20198;-64
2022/01/25 08:23:52;;;;;;;56.60;29.25;;;;;;;;;;5073945;28;20236;-64
2022/01/25 08:26:19;;;;;;;56.58;29.63;;;;;;;;;;5074352;28;20651;-64
2022/01/25 08:28:46;;;;;;;53.35;28.25;;;;;;;;;;5074552;28;20199;-65
2022/01/25 08:31:14;;;;;;;60.95;31.55;;;;;;;;;;5074119;28;20284;-65
2022/01/25 08:33:41;;;;;;;59.15;33.88;;;;;;;;;;5074376;28;20195;-65
2022/01/25 08:36:08;;;;;;;64.78;31.23;;;;;;;;;;5074221;28;20671;-65
2022/01/25 08:38:37;;;;;;;60.90;33.13;;;;;;;;;;5073954;28;20284;-65
2022/01/25 08:41:06;;;;;;;58.85;32.50;;;;;;;;;;5074428;28;20616;-65
2022/01/25 08:43:33;;;;;;;66.30;32.90;;;;;;;;;;5073055;28;20192;-65
2022/01/25 08:46:03;;;;;;;58.85;31.48;;;;;;;;;;5073854;28;20226;-65
2022/01/25 08:48:30;;;;;;;55.83;29.40;;;;;;;;;;5074123;28;20235;-64
2022/01/25 08:50:58;;;;;;;60.70;29.77;;;;;;;;;;5074024;28;20237;-66
2022/01/25 08:53:25;;;;;;;58.10;30.23;;;;;;;;;;5074343;28;20285;-65
2022/01/25 08:55:54;;;;;;;66.05;32.50;;;;;;;;;;5074062;28;20195;-65
2022/01/25 08:58:21;;;;;;;62.58;30.10;;;;;;;;;;5073969;28;20287;-65
2022/01/25 09:00:48;;;;;;;60.53;30.88;;;;;;;;;;5073614;28;20233;-64
2022/01/25 09:03:16;;;;;;;59.72;31.23;;;;;;;;;;5073935;28;20228;-65
2022/01/25 09:05:43;;;;;;;59.75;30.20;;;;;;;;;;5073555;28;20230;-64
2022/01/25 09:08:19;;;;;;;68.05;31.85;;;;;;;;;;5073437;28;20238;-64
2022/01/25 09:10:46;;;;;;;60.00;31.67;;;;;;;;;;5073760;28;20208;-64
2022/01/25 09:13:15;;;;;;;59.30;28.70;;;;;;;;;;5073281;28;20680;-64
2022/01/25 09:15:42;;;;;;;61.60;31.27;;;;;;;;;;5073852;28;20196;-65
2022/01/25 09:18:15;;;;;;;60.60;29.35;;;;;;;;;;5073466;28;20278;-65
2022/01/25 09:20:43;;;;;;;52.83;29.92;;;;;;;;;;5073911;28;20275;-64
2022/01/25 09:23:10;;;;;;;62.80;30.98;;;;;;;;;;5073225;28;20703;-65
2022/01/25 09:25:37;;;;;;;61.60;30.10;;;;;;;;;;5073649;28;20223;-64
2022/01/25 09:28:05;;;;;;;57.47;28.30;;;;;;;;;;5073181;28;20232;-64
2022/01/25 09:30:34;;;;;;;58.70;30.92;;;;;;;;;;5073357;28;20265;-64
2022/01/25 09:33:02;;;;;;;63.70;31.17;;;;;;;;;;5073127;28;20309;-65
2022/01/25 09:35:29;;;;;;;62.78;30.08;;;;;;;;;;5073072;28;20338;-65
2022/01/25 09:37:57;;;;;;;62.45;30.23;;;;;;;;;;5073735;28;20228;-65
2022/01/25 09:40:30;;;;;;;57.42;29.55;;;;;;;;;;5073996;28;20195;-64
2022/01/25 09:42:58;;;;;;;55.25;29.98;;;;;;;;;;5073016;28;20290;-65
2022/01/25 09:45:26;;;;;;;63.88;30.65;;;;;;;;;;5072924;28;20197;-64
2022/01/25 09:47:55;;;;;;;61.75;30.00;;;;;;;;;;5073175;28;20574;-65
2022/01/25 09:50:23;;;;;;;55.88;31.15;;;;;;;;;;5072784;28;20284;-64
2022/01/25 09:52:50;;;;;;;53.20;27.98;;;;;;;;;;5073364;28;20193;-64
2022/01/25 09:55:19;;;;;;;54.60;27.45;;;;;;;;;;5072654;28;20863;-64
2022/01/25 09:57:47;;;;;;;55.65;28.30;;;;;;;;;;5073533;28;20656;-65
2022/01/25 10:00:15;;;;;;;53.80;27.85;;;;;;;;;;5072883;28;20198;-65
2022/01/25 10:02:49;;;;;;;51.85;28.00;;;;;;;;;;5072857;28;20283;-65
2022/01/25 10:05:18;;;;;;;55.08;30.33;;;;;;;;;;5072237;28;20191;-64
2022/01/25 10:07:55;;;;;;;54.22;28.60;;;;;;;;;;5073269;28;20291;-65
2022/01/25 10:10:22;;;;;;;60.45;29.20;;;;;;;;;;5072390;28;20188;-64
2022/01/25 10:12:50;;;;;;;50.22;27.58;;;;;;;;;;5073194;28;20246;-65
2022/01/25 10:15:17;;;;;;;58.20;27.25;;;;;;;;;;5072982;28;20599;-65
2022/01/25 10:17:46;;;;;;;61.30;27.77;;;;;;;;;;5072638;28;20199;-65
2022/01/25 10:20:27;;;;;;;54.67;30.83;;;;;;;;;;5072547;28;20196;-65
2022/01/25 10:22:57;;;;;;;60.15;30.30;;;;;;;;;;5072717;28;20642;-65
2022/01/25 10:25:31;;;;;;;53.58;26.15;;;;;;;;;;5073066;28;20208;-65
2022/01/25 10:28:03;;;;;;;54.05;27.75;;;;;;;;;;5073616;28;20281;-64
2022/01/25 10:30:31;;;;;;;51.92;27.13;;;;;;;;;;5072459;28;20275;-65
2022/01/25 10:33:01;;;;;;;53.67;30.15;;;;;;;;;;5073145;28;20629;-65
2022/01/25 10:35:31;;;;;;;49.78;28.85;;;;;;;;;;5072735;28;20201;-64
2022/01/25 10:37:58;;;;;;;50.05;26.80;;;;;;;;;;5073155;28;20235;-64
2022/01/25 10:40:39;;;;;;;55.17;28.27;;;;;;;;;;5072389;28;20200;-65
2022/01/25 10:43:07;;;;;;;54.45;28.05;;;;;;;;;;5072621;28;20242;-65
2022/01/25 10:45:34;;;;;;;59.75;30.33;;;;;;;;;;5072639;28;20197;-65
2022/01/25 10:48:01;;;;;;;55.88;28.90;;;;;;;;;;5072359;28;20205;-65
2022/01/25 10:50:31;;;;;;;63.15;30.27;;;;;;;;;;5072701;28;20290;-64
2022/01/25 10:53:07;;;;;;;58.22;29.80;;;;;;;;;;5072481;28;20287;-65
2022/01/25 10:55:38;;;;;;;54.38;28.63;;;;;;;;;;5073072;28;20194;-64
2022/01/25 10:58:07;;;;;;;47.90;28.55;;;;;;;;;;5072292;28;20247;-64
2022/01/25 11:00:37;;;;;;;51.65;28.02;;;;;;;;;;5072676;28;20667;-65
2022/01/25 11:03:05;;;;;;;54.05;29.40;;;;;;;;;;5072277;28;20192;-65
2022/01/25 11:05:33;;;;;;;60.17;28.52;;;;;;;;;;5072866;28;20613;-65
2022/01/25 11:08:12;;;;;;;55.55;30.70;;;;;;;;;;5075991;28;20563;-65
2022/01/25 11:10:46;;;;;;;55.47;30.25;;;;;;;;;;5076479;28;20196;-65
2022/01/25 11:13:33;;;;;;;50.30;27.30;;;;;;;;;;5075932;28;20616;-65
2022/01/25 11:16:01;;;;;;;57.10;28.90;;;;;;;;;;5075790;28;20667;-64
2022/01/25 11:18:30;;;;;;;51.88;28.30;;;;;;;;;;5075827;28;20287;-64
2022/01/25 11:20:57;;;;;;;58.40;28.92;;;;;;;;;;5076052;28;20223;-65
2022/01/25 11:23:26;;;;;;;51.45;27.90;;;;;;;;;;5075853;28;20223;-66
2022/01/25 11:25:55;;;;;;;55.13;28.73;;;;;;;;;;5075796;28;20202;-65
2022/01/25 11:28:23;;;;;;;48.28;27.42;;;;;;;;;;5075359;28;20207;-65
2022/01/25 11:30:51;;;;;;;47.30;25.42;;;;;;;;;;5075536;28;20200;-65
2022/01/25 11:33:20;;;;;;;56.97;28.58;;;;;;;;;;5076388;28;20261;-65
2022/01/25 11:35:48;;;;;;;55.50;28.55;;;;;;;;;;5076104;28;20214;-65
2022/01/25 11:38:16;;;;;;;59.00;29.67;;;;;;;;;;5075224;28;20231;-65
2022/01/25 11:40:47;;;;;;;56.78;27.73;;;;;;;;;;5075221;28;20287;-65
2022/01/25 11:43:15;;;;;;;55.60;29.50;;;;;;;;;;5075223;28;20676;-66
2022/01/25 11:45:43;;;;;;;62.92;30.25;;;;;;;;;;5075046;28;20284;-65
2022/01/25 11:48:10;;;;;;;52.25;27.33;;;;;;;;;;5075030;28;20284;-64
2022/01/25 11:50:39;;;;;;;51.63;29.00;;;;;;;;;;5075012;28;20662;-64
2022/01/25 11:53:07;;;;;;;50.10;27.42;;;;;;;;;;5075705;28;20665;-65
2022/01/25 11:55:36;;;;;;;51.50;27.17;;;;;;;;;;5075259;28;20228;-64
2022/01/25 11:58:08;;;;;;;54.80;28.88;;;;;;;;;;5075085;28;20675;-64
2022/01/25 12:00:44;;;;;;;49.58;26.65;;;;;;;;;;5075429;28;20185;-65
2022/01/25 12:03:25;;;;;;;54.83;29.02;;;;;;;;;;5075397;28;20611;-65
2022/01/25 12:06:05;;;;;;;52.50;27.77;;;;;;;;;;5074902;28;20646;-65
2022/01/25 12:08:49;;;;;;;55.90;26.35;;;;;;;;;;5075156;28;20552;-64
2022/01/25 12:11:28;;;;;;;53.50;27.02;;;;;;;;;;5075454;28;20223;-65
2022/01/25 12:16:50;;;;;;;56.92;29.58;;;;;;;;;;5091644;28;20554;-65
2022/01/25 12:19:19;;;;;;;52.40;28.50;;;;;;;;;;5090966;28;20286;-64
2022/01/25 12:22:03;;;;;;;58.50;28.42;;;;;;;;;;5090686;28;20199;-65
2022/01/25 12:24:35;;;;;;;65.32;28.88;;;;;;;;;;5090659;28;20238;-66
2022/01/25 12:27:08;;;;;;;47.80;28.42;;;;;;;;;;5090855;28;20184;-65
2022/01/25 12:29:36;;;;;;;56.38;30.27;;;;;;;;;;5091063;28;20599;-68
2022/01/25 12:32:26;;;;;;;63.47;30.35;;;;;;;;;;5090500;28;20196;-65
2022/01/25 12:35:00;;;;;;;61.83;30.83;;;;;;;;;;5091015;28;20305;-64
2022/01/25 12:37:46;;;;;;;53.92;29.05;;;;;;;;;;5090359;28;20231;-65
2022/01/25 12:40:31;;;;;;;57.08;28.75;;;;;;;;;;5083789;28;20199;-64
2022/01/25 12:42:59;;;;;;;61.28;28.25;;;;;;;;;;5090005;28;20198;-65
2022/01/25 12:45:28;;;;;;;57.30;29.38;;;;;;;;;;5090179;28;20287;-65
2022/01/25 12:47:58;;;;;;;54.97;28.60;;;;;;;;;;5090306;28;20298;-65
2022/01/25 12:50:25;;;;;;;58.17;28.77;;;;;;;;;;5090342;28;20244;-65
2022/01/25 12:52:54;;;;;;;47.60;26.85;;;;;;;;;;5089893;28;20204;-65
2022/01/25 12:55:25;;;;;;;63.30;28.30;;;;;;;;;;5089694;28;20216;-66
2022/01/25 12:57:54;;;;;;;62.08;29.58;;;;;;;;;;5089883;28;20676;-68
2022/01/25 13:00:22;;;;;;;55.10;27.65;;;;;;;;;;5090149;28;20234;-68
2022/01/25 13:02:50;;;;;;;55.35;27.88;;;;;;;;;;5090238;28;20253;-69
2022/01/25 13:05:21;;;;;;;49.58;26.65;;;;;;;;;;5090219;28;20200;-69
2022/01/25 13:07:48;;;;;;;53.58;27.33;;;;;;;;;;5089352;28;20191;-70
2022/01/25 13:10:25;;;;;;;53.10;28.70;;;;;;;;;;5089098;28;20265;-69
2022/01/25 13:12:58;;;;;;;54.92;26.20;;;;;;;;;;5089075;28;20224;-69
2022/01/25 13:15:51;;;;;;;58.92;28.58;;;;;;;;;;5089086;28;20290;-70
2022/01/25 13:18:19;;;;;;;55.88;28.08;;;;;;;;;;5089084;28;20184;-69
2022/01/25 13:20:59;;;;;;;63.72;28.20;;;;;;;;;;5087849;28;20235;-70
2022/01/25 13:23:27;;;;;;;66.22;31.92;;;;;;;;;;5091196;28;20192;-69
2022/01/25 13:25:57;;;;;;;53.17;27.25;;;;;;;;;;5087950;28;20197;-70
2022/01/25 13:28:51;;;;;;;57.83;28.02;;;;;;;;;;5074763;28;20188;-69
2022/01/25 13:31:21;;;;;;;56.25;28.23;;;;;;;;;;5075570;28;20193;-68
2022/01/25 13:33:51;;;;;;;55.10;28.15;;;;;;;;;;5075616;28;20193;-69
2022/01/25 13:36:21;;;;;;;55.15;29.40;;;;;;;;;;5075465;28;20218;-69
2022/01/25 13:38:51;;;;;;;62.53;29.48;;;;;;;;;;5076351;28;20204;-70
2022/01/25 13:41:24;;;;;;;55.88;28.30;;;;;;;;;;5075696;28;20637;-68
2022/01/25 13:46:39;;;;;;;54.45;28.35;;;;;;;;;;5075524;28;20291;-69
2022/01/25 13:49:09;;;;;;;58.33;27.13;;;;;;;;;;5075801;28;20264;-69
2022/01/25 13:51:42;;;;;;;54.47;27.23;;;;;;;;;;5075693;28;20205;-70
2022/01/25 13:54:09;;;;;;;56.40;28.70;;;;;;;;;;5075414;28;20278;-70
2022/01/25 13:56:37;;;;;;;53.58;26.52;;;;;;;;;;5075264;28;20223;-68
2022/01/25 13:59:06;;;;;;;54.40;27.08;;;;;;;;;;5075628;28;20197;-68
2022/01/25 14:01:35;;;;;;;56.63;26.40;;;;;;;;;;5075871;28;20255;-68
2022/01/25 14:04:04;;;;;;;55.35;29.48;;;;;;;;;;5075458;28;20218;-69
2022/01/25 14:06:33;;;;;;;62.00;28.27;;;;;;;;;;5075253;28;20228;-70
2022/01/25 14:09:04;;;;;;;59.58;27.33;;;;;;;;;;5075331;28;20203;-70
2022/01/25 14:11:38;;;;;;;54.83;28.00;;;;;;;;;;5075190;28;20279;-69
2022/01/25 14:25:12;;;;;;;59.22;28.05;;;;;;;;;;5069572;28;20244;-70
2022/01/25 14:27:49;;;;;;;60.40;27.40;;;;;;;;;;5074879;28;20201;-69
2022/01/25 14:30:17;;;;;;;51.95;26.55;;;;;;;;;;5074774;28;20185;-70
2022/01/25 14:32:44;;;;;;;61.58;28.77;;;;;;;;;;5074664;28;20199;-70
2022/01/25 14:35:13;;;;;;;60.83;28.55;;;;;;;;;;5074700;28;20199;-70
2022/01/25 14:37:42;;;;;;;57.72;30.60;;;;;;;;;;5074320;28;20201;-69
2022/01/25 14:40:10;;;;;;;63.20;29.27;;;;;;;;;;5073782;28;20196;-69
2022/01/25 14:42:40;;;;;;;61.55;29.25;;;;;;;;;;5074522;28;20201;-70
2022/01/25 14:45:08;;;;;;;57.17;26.92;;;;;;;;;;5074710;28;20191;-70
2022/01/25 14:47:38;;;;;;;59.72;26.60;;;;;;;;;;5078404;22;20274;-69
2022/01/25 14:50:08;;;;;;;54.20;27.40;;;;;;;;;;5054503;28;20246;-70
2022/01/25 14:52:35;;;;;;;54.75;27.85;;;;;;;;;;5054278;28;20285;-70
2022/01/25 14:55:02;;;;;;;56.28;29.40;;;;;;;;;;5054145;28;20288;-71
2022/01/25 14:57:40;;;;;;;57.78;28.67;;;;;;;;;;5053962;28;20260;-70
2022/01/25 15:00:09;;;;;;;58.20;27.25;;;;;;;;;;5054568;28;20277;-69
2022/01/25 15:02:36;;;;;;;54.88;27.42;;;;;;;;;;5054035;28;20254;-69
2022/01/25 15:05:04;;;;;;;55.65;28.15;;;;;;;;;;5054334;28;20279;-69
2022/01/25 15:07:33;;;;;;;52.58;27.70;;;;;;;;;;5054213;28;20283;-71
2022/01/25 15:10:04;;;;;;;63.30;32.45;;;;;;;;;;5054123;28;20197;-71
2022/01/25 15:12:37;;;;;;;53.15;27.13;;;;;;;;;;5053963;28;20240;-71
2022/01/25 15:15:09;;;;;;;61.10;30.92;;;;;;;;;;5054129;28;20604;-70
2022/01/25 15:17:38;;;;;;;55.83;28.23;;;;;;;;;;5054321;28;20216;-70
2022/01/25 15:20:06;;;;;;;54.75;27.83;;;;;;;;;;5054058;28;20284;-71
2022/01/25 15:22:33;;;;;;;57.58;27.08;;;;;;;;;;5053913;28;20288;-71
2022/01/25 15:25:01;;;;;;;57.55;29.25;;;;;;;;;;5054228;28;20255;-69
2022/01/25 15:27:30;;;;;;;56.88;28.75;;;;;;;;;;5053299;28;20274;-69
2022/01/25 15:29:57;;;;;;;61.65;29.48;;;;;;;;;;5053258;28;20203;-69
2022/01/25 15:32:25;;;;;;;67.28;29.98;;;;;;;;;;5053769;28;20222;-70
2022/01/25 15:34:54;;;;;;;62.72;30.65;;;;;;;;;;5053274;28;20232;-70
2022/01/25 15:37:22;;;;;;;56.95;27.60;;;;;;;;;;5053602;28;20215;-68
2022/01/25 15:39:49;;;;;;;60.60;28.70;;;;;;;;;;5054284;28;20664;-70
2022/01/25 15:42:19;;;;;;;57.75;28.70;;;;;;;;;;5053624;28;20282;-69
2022/01/25 15:44:47;;;;;;;54.38;28.75;;;;;;;;;;5053685;28;20197;-69
2022/01/25 15:47:15;;;;;;;61.22;27.70;;;;;;;;;;5053223;28;20280;-68
2022/01/25 15:49:44;;;;;;;55.80;28.08;;;;;;;;;;5052988;28;20267;-69
2022/01/25 15:52:13;;;;;;;61.28;28.65;;;;;;;;;;5053065;28;20233;-70
2022/01/25 15:54:41;;;;;;;60.30;30.85;;;;;;;;;;5053229;28;20635;-69
2022/01/25 15:57:10;;;;;;;58.55;27.45;;;;;;;;;;5053007;28;20323;-69
2022/01/25 15:59:38;;;;;;;59.15;27.05;;;;;;;;;;5053395;28;20240;-69
2022/01/25 16:02:10;;;;;;;58.65;27.20;;;;;;;;;;5053048;28;20249;-70